Data for 03/22/2016

Time Sea-Level Adjusted Pressure Absolute Pressure Temperature Relative Humidity Dew Point   
(mb) (inHg) (mb) (inHg) (C) (F) (%) (C) (F)
00:05 1007 29.74 836 24.69 4 39.2 50 -5.5 22
00:10 1007 29.74 836 24.69 4 39.2 49 -5.9 21.5
00:15 1007 29.74 836 24.69 4.3 39.7 49 -5.6 21.9
00:20 1007 29.74 836 24.69 4.1 39.4 50 -5.4 22.3
00:25 1007 29.74 836 24.69 4.2 39.5 49 -5.5 22.1
00:30 1007 29.74 836 24.69 4 39.3 50 -5.4 22.2
00:35 1007 29.74 836 24.69 4 39.2 50 -5.4 22.2
00:40 1007 29.74 836 24.69 4.1 39.3 50 -5.4 22.4
00:45 1007 29.74 836 24.69 3.8 38.8 51 -5.4 22.2
00:50 1007 29.74 836 24.69 3.9 38.9 50 -5.7 21.7
00:55 1007 29.74 836 24.69 4 39.2 50 -5.5 22.1
01:00 1007 29.74 836 24.69 3.7 38.6 51 -5.5 22.1
01:05 1007 29.74 836 24.69 3.3 38 51 -5.8 21.6
01:10 1007 29.74 836 24.69 3.4 38.1 52 -5.5 22
01:15 1007 29.74 836 24.69 3.3 38 52 -5.6 21.9
01:20 1007 29.74 836 24.69 3.3 37.9 52 -5.6 21.9
01:25 1007 29.74 836 24.69 3.2 37.8 53 -5.4 22.2
01:30 1007 29.74 836 24.69 3 37.4 55 -5.1 22.7
01:35 1007 29.74 836 24.69 2.9 37.2 54 -5.4 22.2
01:40 1007 29.74 836 24.69 3.1 37.5 53 -5.5 22.1
01:45 1007 29.74 836 24.69 3.2 37.7 54 -5.3 22.4
01:50 1007 29.74 836 24.69 3.2 37.8 53 -5.5 22.1
01:55 1007 29.74 836 24.69 3.1 37.5 53 -5.5 22
02:00 1007 29.74 836 24.69 3 37.5 54 -5.4 22.2
02:05 1007 29.74 836 24.69 2.4 36.3 56 -5.6 22
02:10 1007 29.74 836 24.69 2.3 36.2 56 -5.7 21.8
02:15 1007 29.74 836 24.69 2.6 36.6 54 -5.7 21.7
02:20 1007 29.74 836 24.69 2.7 36.9 54 -5.8 21.6
02:25 1007 29.74 836 24.69 2.6 36.6 55 -5.6 22
02:30 1006 29.71 836 24.69 2.4 36.3 56 -5.6 21.9
02:35 1006 29.71 836 24.69 2.5 36.4 55 -5.8 21.6
02:40 1006 29.71 836 24.69 2.5 36.5 55 -5.6 21.9
02:45 1006 29.71 836 24.69 2.4 36.3 56 -5.4 22.3
02:50 1006 29.71 835 24.66 2.2 35.9 58 -5.2 22.6
02:55 1006 29.71 835 24.66 2.1 35.8 58 -5.3 22.5
03:00 1006 29.71 835 24.66 2.2 35.9 58 -5.2 22.7
03:05 1006 29.71 835 24.66 2.1 35.8 59 -5.2 22.7
03:10 1006 29.71 835 24.66 1.8 35.3 59 -5.3 22.4
03:15 1006 29.71 835 24.66 1.7 35.1 60 -5.3 22.5
03:20 1006 29.71 835 24.66 1.8 35.2 59 -5.3 22.4
03:25 1006 29.71 835 24.66 2.3 36.2 57 -5.3 22.5
03:30 1006 29.71 835 24.66 2.4 36.4 57 -5.2 22.6
03:35 1006 29.71 835 24.66 2.4 36.4 57 -5.3 22.5
03:40 1006 29.71 835 24.66 2.4 36.3 58 -5.1 22.7
03:45 1006 29.71 835 24.66 2.5 36.6 57 -5.2 22.7
03:50 1006 29.71 835 24.66 2.8 37 56 -5.1 22.8
03:55 1006 29.71 835 24.66 2.1 35.8 60 -5 23.1
04:00 1006 29.71 835 24.66 1.5 34.7 63 -4.9 23.2
04:05 1006 29.71 835 24.66 1.3 34.4 62 -5.2 22.6
04:10 1006 29.71 835 24.66 1.9 35.5 59 -5.2 22.6
04:15 1006 29.71 835 24.66 2 35.6 60 -5.1 22.9
04:20 1006 29.71 835 24.66 2.2 36 58 -5.1 22.8
04:25 1006 29.71 835 24.66 2.3 36.1 59 -4.9 23.2
04:30 1006 29.71 835 24.66 2.2 36 59 -4.9 23.1
04:35 1006 29.71 835 24.66 2.2 36 59 -4.9 23.1
04:40 1006 29.71 835 24.66 2.1 35.8 60 -4.8 23.3
04:45 1006 29.71 835 24.66 2.2 36 60 -4.8 23.3
04:50 1006 29.71 835 24.66 2.2 36 59 -4.9 23.2
04:55 1006 29.71 835 24.66 2.3 36.2 59 -4.9 23.2
05:00 1006 29.71 835 24.66 2.3 36.2 59 -4.9 23.2
05:05 1006 29.71 835 24.66 2.3 36.1 59 -4.9 23.2
05:10 1006 29.71 835 24.66 2 35.6 60 -4.9 23.2
05:15 1006 29.71 835 24.66 1.8 35.3 63 -4.4 24.1
05:20 1006 29.71 835 24.66 1.5 34.7 65 -4.3 24.2
05:25 1006 29.71 835 24.66 1.8 35.2 62 -4.7 23.5
05:30 1006 29.71 835 24.66 2.1 35.8 61 -4.7 23.5
05:35 1006 29.71 835 24.66 2.1 35.8 61 -4.6 23.7
05:40 1006 29.71 835 24.66 2.1 35.8 62 -4.4 24
05:45 1006 29.71 835 24.66 1.6 34.8 65 -4.3 24.3
05:50 1006 29.71 835 24.66 1.3 34.3 67 -4.1 24.6
05:55 1006 29.71 835 24.66 1.4 34.5 65 -4.4 24
06:00 1006 29.71 835 24.66 1.7 35.1 65 -4.1 24.6
06:05 1006 29.71 835 24.66 1.9 35.4 65 -4.1 24.6
06:10 1006 29.71 835 24.66 1.9 35.4 65 -4 24.8
06:15 1006 29.71 835 24.66 1.7 35 66 -4.1 24.7
06:20 1006 29.71 835 24.66 1.6 34.9 66 -4 24.7
06:25 1006 29.71 835 24.66 1.4 34.6 67 -4.1 24.6
06:30 1006 29.71 835 24.66 1.4 34.5 66 -4.3 24.2
06:35 1006 29.71 835 24.66 1.3 34.3 67 -4.2 24.5
06:40 1006 29.71 835 24.66 1.4 34.5 68 -4 24.8
06:45 1006 29.71 835 24.66 1.4 34.6 68 -3.9 25
06:50 1006 29.71 835 24.66 1.6 34.9 68 -3.7 25.4
06:55 1006 29.71 836 24.69 1.7 35.1 67 -3.8 25.1
07:00 1006 29.71 836 24.69 2 35.6 67 -3.4 25.8
07:05 1006 29.71 836 24.69 2.1 35.7 68 -3.2 26.2
07:10 1006 29.71 836 24.69 2.2 36 68 -3.1 26.5
07:15 1006 29.71 836 24.69 2.4 36.4 68 -2.9 26.8
07:20 1006 29.71 836 24.69 2.4 36.4 69 -2.7 27.1
07:25 1006 29.71 836 24.69 2.1 35.8 69 -2.9 26.7
07:30 1006 29.71 836 24.69 1.9 35.4 69 -3.2 26.3
07:35 1006 29.71 836 24.69 1.9 35.4 70 -3 26.5
07:40 1007 29.74 836 24.69 2 35.7 69 -3 26.5
07:45 1007 29.74 836 24.69 2.2 35.9 68 -3.1 26.5
07:50 1007 29.74 836 24.69 2.4 36.3 69 -2.6 27.2
07:55 1007 29.74 836 24.69 2.6 36.7 68 -2.7 27.2
08:00 1007 29.74 836 24.69 2.7 36.8 70 -2.3 27.9
08:05 1007 29.74 836 24.69 2.9 37.2 69 -2.2 28
08:10 1007 29.74 836 24.69 3.1 37.5 68 -2.3 27.8
08:15 1007 29.74 836 24.69 3.2 37.7 66 -2.6 27.4
08:20 1007 29.74 836 24.69 3.3 37.9 65 -2.7 27.1
08:25 1007 29.74 836 24.69 3.3 38 64 -2.8 26.9
08:30 1007 29.74 836 24.69 3.2 37.8 64 -2.9 26.8
08:35 1007 29.74 836 24.69 3 37.5 66 -2.8 27
08:40 1007 29.74 837 24.72 2.7 36.9 67 -2.7 27.1
08:45 1007 29.74 837 24.72 2.4 36.3 71 -2.3 27.9
08:50 1007 29.74 837 24.72 2 35.7 77 -1.6 29
08:55 1007 29.74 837 24.72 1.7 35.1 79 -1.6 29.2
09:00 1007 29.74 837 24.72 1.8 35.3 80 -1.2 29.8
09:05 1008 29.77 837 24.72 1.8 35.2 83 -0.8 30.6
09:10 1008 29.77 837 24.72 1.7 35.1 84 -0.7 30.8
09:15 1008 29.77 837 24.72 1.6 34.9 86 -0.5 31.1
09:20 1008 29.77 837 24.72 1.2 34.1 88 -0.5 31
09:25 1008 29.77 837 24.72 0.7 33.3 91 -0.6 30.9
09:30 1008 29.77 837 24.72 0.6 33.1 91 -0.7 30.8
09:35 1008 29.77 837 24.72 0.6 33.1 91 -0.7 30.8
09:40 1008 29.77 837 24.72 0.5 32.9 92 -0.7 30.8
09:45 1008 29.77 837 24.72 0.5 32.9 92 -0.6 30.9
09:50 1008 29.77 837 24.72 0.5 32.9 93 -0.6 30.9
09:55 1008 29.77 837 24.72 0.3 32.6 93 -0.7 30.7
10:00 1008 29.77 837 24.72 0.3 32.5 93 -0.7 30.8
10:05 1008 29.77 837 24.72 0.3 32.6 93 -0.6 30.9
10:10 1008 29.77 837 24.72 0.5 33 94 -0.4 31.3
10:15 1008 29.77 837 24.72 0.7 33.2 93 -0.3 31.5
10:20 1008 29.77 837 24.72 0.8 33.4 93 -0.2 31.6
10:25 1008 29.77 838 24.75 0.8 33.5 93 -0.2 31.7
10:30 1008 29.77 838 24.75 0.8 33.4 93 -0.3 31.5
10:35 1008 29.77 838 24.75 0.8 33.4 92 -0.4 31.3
10:40 1008 29.77 838 24.75 0.6 33.1 92 -0.5 31.1
10:45 1008 29.77 838 24.75 0.5 32.8 93 -0.6 31
10:50 1008 29.77 838 24.75 0.4 32.7 93 -0.6 30.9
10:55 1008 29.77 838 24.75 0.4 32.8 93 -0.5 31
11:00 1008 29.77 838 24.75 0.5 33 94 -0.4 31.3
11:05 1008 29.77 838 24.75 0.7 33.3 93 -0.3 31.5
11:10 1008 29.77 838 24.75 0.6 33.1 93 -0.4 31.2
11:15 1009 29.8 838 24.75 0.5 32.9 93 -0.4 31.2
11:20 1009 29.8 838 24.75 0.8 33.4 94 -0.1 31.8
11:25 1009 29.8 838 24.75 1 33.8 93 0 32
11:30 1009 29.8 838 24.75 0.9 33.7 92 -0.2 31.7
11:35 1008 29.77 838 24.75 0.8 33.5 92 -0.3 31.4
11:40 1009 29.8 838 24.75 0.6 33.1 93 -0.4 31.2
11:45 1009 29.8 838 24.75 0.6 33.2 93 -0.4 31.3
11:50 1009 29.8 838 24.75 0.6 33.1 93 -0.4 31.3
11:55 1009 29.8 838 24.75 0.6 33.1 93 -0.4 31.2
12:00 1009 29.8 838 24.75 0.6 33.2 93 -0.4 31.4
12:05 1009 29.8 838 24.75 0.7 33.3 93 -0.3 31.4
12:10 1009 29.8 838 24.75 0.8 33.5 92 -0.3 31.5
12:15 1009 29.8 838 24.75 0.9 33.6 92 -0.3 31.5
12:20 1009 29.8 838 24.75 0.7 33.2 92 -0.4 31.3
12:25 1009 29.8 838 24.75 0.8 33.4 93 -0.3 31.5
12:30 1009 29.8 838 24.75 0.8 33.5 92 -0.3 31.4
12:35 1009 29.8 838 24.75 0.8 33.4 92 -0.4 31.3
12:40 1009 29.8 838 24.75 0.8 33.4 92 -0.3 31.4
12:45 1009 29.8 838 24.75 0.9 33.6 92 -0.3 31.5
12:50 1009 29.8 838 24.75 1 33.8 92 -0.1 31.8
12:55 1009 29.8 838 24.75 0.8 33.5 92 -0.3 31.4
13:00 1009 29.8 838 24.75 0.7 33.3 92 -0.4 31.2
13:05 1009 29.8 838 24.75 0.7 33.2 92 -0.4 31.2
13:10 1009 29.8 838 24.75 0.6 33 93 -0.5 31.1
13:15 1009 29.8 838 24.75 0.6 33 93 -0.4 31.2
13:20 1009 29.8 838 24.75 0.7 33.2 93 -0.3 31.4
13:25 1009 29.8 838 24.75 0.7 33.2 93 -0.4 31.3
13:30 1009 29.8 838 24.75 0.6 33.1 93 -0.5 31.2
13:35 1009 29.8 838 24.75 0.6 33.1 93 -0.4 31.3
13:40 1009 29.8 838 24.75 0.8 33.4 93 -0.3 31.5
13:45 1009 29.8 838 24.75 0.8 33.4 92 -0.3 31.5
13:50 1009 29.8 839 24.78 0.7 33.3 92 -0.4 31.3
13:55 1009 29.8 839 24.78 0.6 33.1 92 -0.5 31.1
14:00 1009 29.8 839 24.78 0.5 32.9 93 -0.6 31
14:05 1010 29.83 839 24.78 0.5 32.9 93 -0.5 31
14:10 1010 29.83 839 24.78 0.5 32.9 93 -0.5 31.1
14:15 1010 29.83 839 24.78 0.5 33 93 -0.5 31.1
14:20 1010 29.83 839 24.78 0.5 32.9 93 -0.5 31.1
14:25 1010 29.83 839 24.78 0.5 32.9 93 -0.5 31
14:30 1010 29.83 839 24.78 0.5 32.8 92 -0.6 30.9
14:35 1010 29.83 839 24.78 0.5 32.8 92 -0.7 30.8
14:40 1010 29.83 839 24.78 0.4 32.7 92 -0.7 30.7
14:45 1010 29.83 840 24.81 0.4 32.7 92 -0.7 30.7
14:50 1010 29.83 840 24.81 0.4 32.8 92 -0.7 30.7
14:55 1011 29.85 840 24.81 0.4 32.8 92 -0.8 30.6
15:00 1011 29.85 840 24.81 0.5 32.8 92 -0.7 30.7
15:05 1011 29.85 840 24.81 0.6 33 91 -0.7 30.8
15:10 1011 29.85 840 24.81 0.6 33.1 91 -0.7 30.8
15:15 1011 29.85 840 24.81 0.7 33.3 91 -0.6 30.9
15:20 1011 29.85 840 24.81 0.9 33.6 90 -0.5 31
15:25 1011 29.85 840 24.81 1.1 33.9 90 -0.4 31.2
15:30 1011 29.85 840 24.81 1.1 34 89 -0.5 31.2
15:35 1011 29.85 840 24.81 1.2 34.1 89 -0.4 31.2
15:40 1011 29.85 840 24.81 1.3 34.4 88 -0.5 31.2
15:45 1011 29.85 841 24.83 1.3 34.3 87 -0.6 30.9
15:50 1011 29.85 841 24.83 1.1 33.9 88 -0.6 30.9
15:55 1011 29.85 841 24.83 0.9 33.7 89 -0.7 30.8
16:00 1012 29.88 841 24.83 0.9 33.6 89 -0.8 30.6
16:05 1012 29.88 841 24.83 1 33.7 89 -0.7 30.8
16:10 1012 29.88 841 24.83 0.7 33.3 90 -0.7 30.7
16:15 1012 29.88 841 24.83 0.6 33 91 -0.8 30.6
16:20 1012 29.88 841 24.83 0.5 32.9 92 -0.7 30.7
16:25 1012 29.88 841 24.83 0.6 33.1 91 -0.7 30.8
16:30 1012 29.88 841 24.83 0.6 33 91 -0.7 30.8
16:35 1012 29.88 841 24.83 0.7 33.3 91 -0.7 30.8
16:40 1012 29.88 841 24.83 0.6 33.1 91 -0.7 30.8
16:45 1012 29.88 841 24.83 0.7 33.2 92 -0.6 31
16:50 1012 29.88 841 24.83 0.6 33.1 91 -0.7 30.8
16:55 1012 29.88 841 24.83 0.4 32.7 92 -0.8 30.6
17:00 1012 29.88 842 24.86 0.4 32.6 92 -0.8 30.6
17:05 1012 29.88 842 24.86 0.4 32.7 92 -0.8 30.6
17:10 1012 29.88 842 24.86 0.3 32.6 92 -0.8 30.6
17:15 1013 29.91 842 24.86 0.3 32.5 92 -0.8 30.5
17:20 1013 29.91 842 24.86 0.3 32.5 92 -0.8 30.5
17:25 1013 29.91 842 24.86 0.2 32.4 92 -0.9 30.5
17:30 1013 29.91 842 24.86 0.3 32.5 92 -0.8 30.5
17:35 1013 29.91 842 24.86 0.3 32.5 92 -0.8 30.5
17:40 1013 29.91 842 24.86 0.2 32.3 92 -1 30.3
17:45 1013 29.91 842 24.86 0.1 32.2 92 -1 30.2
17:50 1013 29.91 842 24.86 0.1 32.2 92 -1.1 30.1
17:55 1013 29.91 842 24.86 0.2 32.3 92 -1 30.2
18:00 1013 29.91 842 24.86 0.3 32.5 91 -1 30.2
18:05 1013 29.91 842 24.86 0.2 32.4 91 -1.1 30.1
18:10 1013 29.91 842 24.86 0.2 32.3 91 -1.1 30
18:15 1013 29.91 843 24.89 0.2 32.3 91 -1.1 30.1
18:20 1013 29.91 843 24.89 0.2 32.3 91 -1.1 30
18:25 1013 29.91 843 24.89 0.1 32.2 91 -1.2 29.8
18:30 1013 29.91 843 24.89 0 32.1 91 -1.2 29.8
18:35 1013 29.91 843 24.89 0.1 32.1 92 -1.1 30
18:40 1014 29.94 843 24.89 -0 32 92 -1.2 29.8
18:45 1014 29.94 843 24.89 -0 31.9 92 -1.2 29.9
18:50 1014 29.94 843 24.89 0 32 92 -1.1 30.1
18:55 1014 29.94 843 24.89 0 32 92 -1.1 30.1
19:00 1014 29.94 843 24.89 -0.1 31.8 93 -1.2 29.9
19:05 1014 29.94 843 24.89 -0.1 31.9 93 -1.1 30.1
19:10 1014 29.94 843 24.89 -0.1 31.8 93 -1 30.1
19:15 1014 29.94 843 24.89 -0.2 31.7 94 -1.1 30
19:20 1014 29.94 843 24.89 -0.2 31.6 94 -1.1 30.1
19:25 1014 29.94 843 24.89 -0.3 31.5 94 -1.1 29.9
19:30 1014 29.94 844 24.92 -0.4 31.3 94 -1.2 29.9
19:35 1014 29.94 844 24.92 -0.4 31.3 94 -1.2 29.8
19:40 1014 29.94 844 24.92 -0.5 31.2 94 -1.3 29.7
19:45 1015 29.97 844 24.92 -0.6 30.9 94 -1.4 29.5
19:50 1015 29.97 844 24.92 -0.8 30.6 94 -1.5 29.2
19:55 1015 29.97 844 24.92 -0.7 30.7 95 -1.5 29.3
20:00 1015 29.97 844 24.92 -0.8 30.6 95 -1.6 29.2
20:05 1015 29.97 844 24.92 -0.9 30.4 95 -1.7 29
20:10 1015 29.97 844 24.92 -1 30.3 95 -1.7 28.9
20:15 1015 29.97 844 24.92 -1 30.2 95 -1.7 28.9
20:20 1015 29.97 844 24.92 -1 30.1 95 -1.8 28.7
20:25 1015 29.97 844 24.92 -1.1 30.1 95 -1.8 28.7
20:30 1015 29.97 844 24.92 -1.1 30 95 -1.9 28.6
20:35 1015 29.97 844 24.92 -1.1 30 95 -1.9 28.6
20:40 1015 29.97 844 24.92 -1.1 30 95 -1.8 28.7
20:45 1015 29.97 844 24.92 -1.1 30 95 -1.9 28.6
20:50 1015 29.97 844 24.92 -1.2 29.9 95 -1.9 28.6
20:55 1015 29.97 844 24.92 -1.2 29.9 95 -1.9 28.5
21:00 1015 29.97 844 24.92 -1.2 29.8 95 -1.9 28.5
21:05 1015 29.97 844 24.92 -1.2 29.8 95 -1.9 28.5
21:10 1015 29.97 844 24.92 -1.2 29.8 95 -1.9 28.6
21:15 1015 29.97 844 24.92 -1.2 29.8 95 -1.9 28.5
21:20 1015 29.97 844 24.92 -1.2 29.9 95 -1.9 28.6
21:25 1015 29.97 844 24.92 -1.2 29.9 95 -1.9 28.6
21:30 1015 29.97 844 24.92 -1.2 29.8 95 -1.9 28.6
21:35 1015 29.97 844 24.92 -1.2 29.8 95 -1.9 28.5
21:40 1015 29.97 845 24.95 -1.3 29.7 95 -2 28.5
21:45 1015 29.97 845 24.95 -1.3 29.7 95 -2 28.4
21:50 1015 29.97 845 24.95 -1.3 29.6 95 -2 28.4
21:55 1016 30 845 24.95 -1.3 29.6 95 -2 28.4
22:00 1016 30 845 24.95 -1.3 29.6 95 -2 28.3
22:05 1016 30 845 24.95 -1.3 29.6 95 -2 28.3
22:10 1016 30 845 24.95 -1.3 29.6 95 -2 28.3
22:15 1016 30 845 24.95 -1.3 29.6 95 -2 28.3
22:20 1016 30 845 24.95 -1.3 29.7 95 -2 28.4
22:25 1016 30 845 24.95 -1.3 29.7 95 -2 28.5
22:30 1016 30 845 24.95 -1.3 29.6 95 -2 28.3
22:35 1016 30 845 24.95 -1.3 29.6 95 -2 28.4
22:40 1016 30 845 24.95 -1.4 29.6 95 -2 28.3
22:45 1016 30 845 24.95 -1.4 29.5 95 -2.1 28.2
22:50 1016 30 845 24.95 -1.5 29.4 95 -2.1 28.1
22:55 1016 30 845 24.95 -1.5 29.3 95 -2.2 28.1
23:00 1016 30 846 24.98 -1.5 29.3 95 -2.2 28
23:05 1016 30 846 24.98 -1.5 29.2 95 -2.2 28
23:10 1016 30 846 24.98 -1.6 29.2 95 -2.3 27.9
23:15 1016 30 846 24.98 -1.6 29.1 95 -2.3 27.9
23:20 1016 30 846 24.98 -1.6 29.1 95 -2.3 27.8
23:25 1016 30 846 24.98 -1.6 29.1 95 -2.3 27.8
23:30 1016 30 846 24.98 -1.6 29.1 95 -2.3 27.9
23:35 1016 30 846 24.98 -1.6 29.1 95 -2.3 27.9
23:40 1016 30 846 24.98 -1.7 29 95 -2.4 27.7
23:45 1016 30 846 24.98 -1.7 29 95 -2.4 27.7
23:50 1017 30.03 846 24.98 -1.7 29 95 -2.4 27.7
23:55 1017 30.03 846 24.98 -1.7 29 95 -2.4 27.7
24:00 1017 30.03 846 24.98 -1.7 29 95 -2.4 27.7